Time;durP1;ratioP1;P1;durP2;ratioP2;P2;SDS_P1;SDS_P2;PMS_P1;PMS_P2;Temp;Humidity;BMP_temperature;BMP_pressure;BME280_temperature;BME280_humidity;BME280_pressure;Samples;Min_cycle;Max_cycle;Signal;HPM_P1;HPM_P2
2023/05/18 00:01:44;;;;;;;5.32;1.95;;;9.70;99.90;;;;;;4174246;28;20096;-60
2023/05/18 00:03:44;;;;;;;5.53;1.70;;;9.70;99.90;;;;;;4174095;28;20052;-61
2023/05/18 00:05:46;;;;;;;4.95;2.00;;;9.70;99.90;;;;;;4173231;28;20095;-60
2023/05/18 00:07:46;;;;;;;6.68;2.20;;;9.60;99.90;;;;;;4173898;28;20115;-60
2023/05/18 00:09:47;;;;;;;6.82;1.92;;;9.50;99.90;;;;;;4173005;28;20433;-60
2023/05/18 00:11:47;;;;;;;7.05;2.13;;;9.50;99.90;;;;;;4172101;28;20376;-61
2023/05/18 00:13:48;;;;;;;7.35;2.00;;;9.60;99.90;;;;;;4174723;28;20037;-61
2023/05/18 00:15:48;;;;;;;5.65;1.90;;;9.60;99.90;;;;;;4173061;28;20033;-60
2023/05/18 00:17:49;;;;;;;6.38;2.10;;;9.60;99.90;;;;;;4173382;28;20057;-61
2023/05/18 00:19:50;;;;;;;6.53;1.98;;;9.60;99.90;;;;;;4173673;28;20032;-60
2023/05/18 00:21:51;;;;;;;4.00;1.35;;;9.70;99.90;;;;;;4172252;28;20037;-60
2023/05/18 00:23:51;;;;;;;3.85;1.73;;;9.70;99.90;;;;;;4170506;28;20052;-60
2023/05/18 00:25:52;;;;;;;4.97;2.03;;;9.80;99.90;;;;;;4174629;28;20040;-61
2023/05/18 00:27:53;;;;;;;5.28;1.40;;;9.90;99.90;;;;;;4176678;28;20032;-60
2023/05/18 00:29:53;;;;;;;5.03;1.60;;;9.90;99.90;;;;;;4174585;28;20040;-60
2023/05/18 00:31:54;;;;;;;5.95;1.77;;;10.00;99.90;;;;;;4171763;28;20391;-66
2023/05/18 00:33:54;;;;;;;5.10;1.65;;;10.10;99.90;;;;;;4175213;28;20499;-61
2023/05/18 00:35:56;;;;;;;6.60;2.10;;;10.00;99.90;;;;;;4171622;28;20114;-63
2023/05/18 00:37:56;;;;;;;4.40;1.60;;;10.00;99.90;;;;;;4172469;28;20509;-61
2023/05/18 00:39:57;;;;;;;4.25;1.70;;;10.00;99.90;;;;;;4170030;28;20102;-61
2023/05/18 00:41:57;;;;;;;3.80;1.58;;;10.00;99.90;;;;;;4172220;28;20033;-61
2023/05/18 00:43:59;;;;;;;4.78;1.52;;;9.90;99.90;;;;;;4171912;28;20040;-60
2023/05/18 00:46:00;;;;;;;4.10;1.77;;;9.90;99.90;;;;;;4172432;28;20036;-61
2023/05/18 00:48:00;;;;;;;3.58;1.70;;;9.90;99.90;;;;;;4175532;28;20115;-60
2023/05/18 00:50:01;;;;;;;5.78;1.48;;;9.90;99.90;;;;;;4174266;28;20044;-60
2023/05/18 00:52:04;;;;;;;4.18;1.38;;;10.00;99.90;;;;;;4172147;28;20396;-60
2023/05/18 00:54:05;;;;;;;;;;;9.90;99.90;;;;;;4175180;28;20079;-61
2023/05/18 00:56:06;;;;;;;5.22;1.85;;;9.90;99.90;;;;;;4166206;28;20042;-60
2023/05/18 00:58:07;;;;;;;5.68;1.77;;;10.00;99.90;;;;;;4173540;28;20029;-60
2023/05/18 01:00:09;;;;;;;7.93;1.65;;;10.00;99.90;;;;;;4170744;28;20036;-61
2023/05/18 01:02:10;;;;;;;4.80;1.98;;;10.10;99.90;;;;;;4173031;28;20036;-60
2023/05/18 01:04:14;;;;;;;7.70;1.95;;;10.10;99.90;;;;;;4174465;28;20182;-60
2023/05/18 01:06:17;;;;;;;4.25;1.48;;;10.20;99.90;;;;;;4173665;28;20037;-60
2023/05/18 01:08:18;;;;;;;5.13;1.80;;;10.20;99.90;;;;;;4174492;28;20028;-60
2023/05/18 01:10:19;;;;;;;4.47;1.92;;;10.20;99.90;;;;;;4172662;28;20040;-60
2023/05/18 01:12:36;;;;;;;4.65;1.90;;;10.20;99.90;;;;;;4169042;28;20061;-60
2023/05/18 01:14:46;;;;;;;4.65;1.70;;;10.30;99.90;;;;;;4171795;28;20028;-60
2023/05/18 01:17:05;;;;;;;5.75;1.60;;;10.30;99.90;;;;;;4167943;28;20047;-60
2023/05/18 01:19:27;;;;;;;4.10;1.80;;;10.30;99.90;;;;;;4172319;28;20493;-61
2023/05/18 01:21:32;;;;;;;5.88;1.75;;;10.40;99.90;;;;;;4173559;28;20041;-60
2023/05/18 01:23:47;;;;;;;4.20;1.60;;;10.40;99.90;;;;;;4172820;28;20059;-60
2023/05/18 01:25:53;;;;;;;5.70;1.95;;;10.30;99.90;;;;;;4172322;28;20056;-60
2023/05/18 01:27:58;;;;;;;6.72;2.13;;;10.40;99.90;;;;;;4174604;28;20037;-60
2023/05/18 01:29:59;;;;;;;4.57;1.77;;;10.40;99.90;;;;;;4176411;28;20120;-60
2023/05/18 01:32:00;;;;;;;4.50;1.80;;;10.40;99.90;;;;;;4174539;28;20459;-60
2023/05/18 01:34:01;;;;;;;5.53;1.80;;;10.40;99.90;;;;;;4176560;28;20028;-60
2023/05/18 01:36:01;;;;;;;4.35;1.95;;;10.40;99.90;;;;;;4174932;28;20041;-60
2023/05/18 01:38:02;;;;;;;4.57;1.90;;;10.40;99.90;;;;;;4177256;28;20391;-61
2023/05/18 01:40:06;;;;;;;5.63;1.92;;;10.40;99.90;;;;;;4176649;28;20374;-61
2023/05/18 01:42:11;;;;;;;7.05;2.00;;;10.40;99.90;;;;;;4175932;28;20044;-60
2023/05/18 01:44:40;;;;;;;3.83;1.60;;;10.40;99.90;;;;;;4177921;28;20534;-60
2023/05/18 01:46:47;;;;;;;7.45;2.50;;;10.40;99.90;;;;;;4174532;28;20127;-60
2023/05/18 01:48:55;;;;;;;4.57;1.35;;;10.40;99.90;;;;;;4177444;28;20041;-60
2023/05/18 01:50:58;;;;;;;9.68;1.90;;;10.30;99.90;;;;;;4176100;28;20472;-61
2023/05/18 01:53:21;;;;;;;;;;;10.30;99.90;;;;;;4177212;28;20048;-61
2023/05/18 01:55:25;;;;;;;4.13;1.60;;;10.30;99.90;;;;;;4174508;28;19913;-60
2023/05/18 01:57:28;;;;;;;4.97;1.92;;;10.30;99.90;;;;;;4175908;28;20025;-61
2023/05/18 01:59:29;;;;;;;6.25;1.77;;;10.30;99.90;;;;;;4175722;28;20116;-60
2023/05/18 02:01:31;;;;;;;5.63;2.25;;;10.20;99.90;;;;;;4176926;28;20076;-60
2023/05/18 02:03:32;;;;;;;5.82;2.25;;;10.20;99.90;;;;;;4177741;28;20060;-61
2023/05/18 02:05:32;;;;;;;6.18;2.05;;;10.20;99.90;;;;;;4175773;28;20049;-60
2023/05/18 02:07:33;;;;;;;7.15;1.88;;;10.20;99.90;;;;;;4176070;28;20041;-60
2023/05/18 02:09:33;;;;;;;5.30;2.10;;;10.20;99.90;;;;;;4174928;28;20036;-60
2023/05/18 02:11:34;;;;;;;3.38;1.85;;;10.20;99.90;;;;;;4176553;28;20431;-60
2023/05/18 02:13:35;;;;;;;7.22;1.83;;;10.20;99.90;;;;;;4177846;28;20125;-60
2023/05/18 02:15:35;;;;;;;6.22;1.90;;;10.10;99.90;;;;;;4174478;28;20099;-60
2023/05/18 02:17:36;;;;;;;5.03;2.05;;;10.10;99.90;;;;;;4176315;28;20151;-60
2023/05/18 02:19:37;;;;;;;5.45;2.10;;;10.10;99.90;;;;;;4177310;28;20036;-60
2023/05/18 02:21:38;;;;;;;5.13;1.80;;;10.10;99.90;;;;;;4174949;28;20037;-60
2023/05/18 02:23:41;;;;;;;3.97;1.70;;;10.10;99.90;;;;;;4176476;28;20041;-60
2023/05/18 02:25:43;;;;;;;5.22;1.88;;;10.00;99.90;;;;;;4174679;28;20044;-60
2023/05/18 02:27:43;;;;;;;5.47;1.80;;;10.00;99.90;;;;;;4173681;28;20365;-60
2023/05/18 02:29:44;;;;;;;4.97;2.00;;;10.00;99.90;;;;;;4177126;28;20039;-60
2023/05/18 02:31:45;;;;;;;7.05;2.42;;;10.00;99.90;;;;;;4175114;28;20025;-60
2023/05/18 02:33:45;;;;;;;6.85;2.17;;;9.90;99.90;;;;;;4176253;28;20044;-60
2023/05/18 02:35:46;;;;;;;4.38;1.80;;;9.90;99.90;;;;;;4176651;28;20075;-60
2023/05/18 02:37:48;;;;;;;5.30;2.10;;;9.90;99.90;;;;;;4176192;28;20037;-60
2023/05/18 02:39:49;;;;;;;6.40;2.00;;;9.90;99.90;;;;;;4176869;28;20065;-60
2023/05/18 02:41:49;;;;;;;4.18;1.90;;;9.90;99.90;;;;;;4173260;28;20365;-60
2023/05/18 02:43:50;;;;;;;5.03;1.98;;;9.80;99.90;;;;;;4174945;28;20048;-60
2023/05/18 02:45:51;;;;;;;4.82;1.77;;;9.80;99.90;;;;;;4176007;28;20549;-60
2023/05/18 02:47:51;;;;;;;4.78;2.10;;;9.80;99.90;;;;;;4175768;28;20381;-60
2023/05/18 02:49:52;;;;;;;5.20;1.90;;;9.80;99.90;;;;;;4176549;28;20436;-60
2023/05/18 02:51:52;;;;;;;8.18;2.10;;;9.80;99.90;;;;;;4174374;28;20057;-60
2023/05/18 02:53:53;;;;;;;7.18;2.17;;;9.80;99.90;;;;;;4174503;28;20131;-60
2023/05/18 02:55:57;;;;;;;4.25;1.90;;;9.80;99.90;;;;;;4173732;28;20042;-60
2023/05/18 02:57:58;;;;;;;3.70;1.90;;;9.80;99.90;;;;;;4177351;28;20128;-61
2023/05/18 02:59:59;;;;;;;5.07;1.90;;;9.80;99.90;;;;;;4173020;28;20029;-60
2023/05/18 03:02:00;;;;;;;4.35;1.98;;;9.80;99.90;;;;;;4174605;28;20029;-60
2023/05/18 03:04:00;;;;;;;7.93;2.22;;;9.80;99.90;;;;;;4174936;28;20032;-61
2023/05/18 03:06:01;;;;;;;4.97;1.98;;;9.80;99.90;;;;;;4174026;28;20033;-61
2023/05/18 03:08:02;;;;;;;6.30;1.67;;;9.80;99.90;;;;;;4174917;28;20039;-60
2023/05/18 03:10:03;;;;;;;10.00;2.33;;;9.70;99.90;;;;;;4175929;28;20033;-61
2023/05/18 03:12:04;;;;;;;5.63;1.80;;;9.70;99.90;;;;;;4175195;28;20025;-61
2023/05/18 03:14:04;;;;;;;5.20;1.73;;;9.70;99.90;;;;;;4175877;28;20052;-60
2023/05/18 03:16:05;;;;;;;5.82;1.63;;;9.70;99.90;;;;;;4175769;28;20017;-60
2023/05/18 03:18:05;;;;;;;5.70;1.90;;;9.70;99.90;;;;;;4175871;28;20052;-60
2023/05/18 03:20:09;;;;;;;5.57;2.10;;;9.70;99.90;;;;;;4173806;28;20032;-60
2023/05/18 03:22:10;;;;;;;3.45;1.60;;;9.70;99.90;;;;;;4170774;28;20037;-60
2023/05/18 03:24:13;;;;;;;4.38;2.10;;;9.60;99.90;;;;;;4174010;28;20059;-60
2023/05/18 03:26:15;;;;;;;5.07;2.00;;;9.60;99.90;;;;;;4171773;28;20029;-60
2023/05/18 03:28:16;;;;;;;4.82;1.70;;;9.70;99.90;;;;;;4172722;28;20041;-60
2023/05/18 03:30:16;;;;;;;7.40;1.98;;;9.60;99.90;;;;;;4173357;28;20041;-60
2023/05/18 03:32:17;;;;;;;5.65;1.83;;;9.60;99.90;;;;;;4173687;28;20034;-60
2023/05/18 03:34:18;;;;;;;4.93;1.70;;;9.70;99.90;;;;;;4170871;28;20040;-60
2023/05/18 03:36:21;;;;;;;4.45;1.60;;;9.60;99.90;;;;;;4168828;28;20032;-60
2023/05/18 03:38:21;;;;;;;3.85;1.70;;;9.70;99.90;;;;;;4173978;28;20103;-61
2023/05/18 03:40:23;;;;;;;5.40;1.92;;;9.60;99.90;;;;;;4172645;28;20037;-60
2023/05/18 03:42:24;;;;;;;5.95;2.25;;;9.60;99.90;;;;;;4173288;28;20656;-60
2023/05/18 03:44:25;;;;;;;6.32;1.95;;;9.60;99.90;;;;;;4172365;28;20065;-60
2023/05/18 03:46:26;;;;;;;13.80;2.30;;;9.60;99.90;;;;;;4170801;28;20040;-60
2023/05/18 03:48:26;;;;;;;8.05;1.90;;;9.50;99.90;;;;;;4173023;28;20041;-60
2023/05/18 03:50:28;;;;;;;7.00;2.25;;;9.50;99.90;;;;;;4168475;28;20654;-60
2023/05/18 03:52:29;;;;;;;4.85;2.17;;;9.50;99.90;;;;;;4174035;28;20037;-66
2023/05/18 03:54:30;;;;;;;6.15;2.40;;;9.50;99.90;;;;;;4193036;28;20083;-60
2023/05/18 03:56:30;;;;;;;6.45;2.00;;;9.50;99.90;;;;;;4173109;28;20029;-60
2023/05/18 03:58:31;;;;;;;7.05;2.05;;;9.60;99.90;;;;;;4172407;28;20488;-60
2023/05/18 04:00:32;;;;;;;6.95;2.08;;;9.60;99.90;;;;;;4173123;28;20407;-60
2023/05/18 04:02:32;;;;;;;6.03;2.10;;;9.60;99.90;;;;;;4174592;28;20025;-61
2023/05/18 04:04:33;;;;;;;5.03;2.05;;;9.60;99.90;;;;;;4175847;28;20041;-60
2023/05/18 04:06:34;;;;;;;7.28;2.35;;;9.60;99.90;;;;;;4172167;28;20037;-60
2023/05/18 04:08:35;;;;;;;6.07;2.03;;;9.60;99.90;;;;;;4174327;28;20424;-60
2023/05/18 04:10:36;;;;;;;6.65;1.95;;;9.60;99.90;;;;;;4174508;28;20104;-60
2023/05/18 04:12:37;;;;;;;6.93;1.90;;;9.60;99.90;;;;;;4176269;28;20388;-60
2023/05/18 04:14:37;;;;;;;9.25;2.50;;;9.70;99.90;;;;;;4174852;28;20036;-60
2023/05/18 04:16:38;;;;;;;8.30;2.28;;;9.70;99.90;;;;;;4172279;28;20052;-61
2023/05/18 04:18:40;;;;;;;7.63;2.15;;;9.70;99.90;;;;;;4173310;28;20049;-60
2023/05/18 04:20:41;;;;;;;5.78;2.00;;;9.70;99.90;;;;;;4171879;28;20041;-60
2023/05/18 04:22:45;;;;;;;3.45;1.90;;;9.70;99.90;;;;;;4171586;28;20055;-60
2023/05/18 04:24:46;;;;;;;4.72;2.00;;;9.70;99.90;;;;;;4170946;28;20032;-60
2023/05/18 04:26:47;;;;;;;4.65;1.80;;;9.70;99.90;;;;;;4172432;28;20029;-60
2023/05/18 04:28:48;;;;;;;5.18;2.03;;;9.70;99.90;;;;;;4171883;28;20029;-60
2023/05/18 04:30:50;;;;;;;3.70;1.75;;;9.80;99.90;;;;;;4172913;28;20109;-61
2023/05/18 04:32:51;;;;;;;5.93;1.95;;;9.80;99.90;;;;;;4172510;28;20036;-60
2023/05/18 04:34:51;;;;;;;4.90;1.80;;;9.80;99.90;;;;;;4172988;28;20411;-60
2023/05/18 04:36:55;;;;;;;5.35;2.20;;;9.80;99.90;;;;;;4171696;28;20380;-60
2023/05/18 04:38:59;;;;;;;8.18;3.15;;;9.80;99.90;;;;;;4171884;28;20392;-60
2023/05/18 04:41:04;;;;;;;5.80;2.00;;;9.90;99.90;;;;;;4170960;28;20068;-62
2023/05/18 04:43:04;;;;;;;7.68;2.22;;;9.80;99.90;;;;;;4171466;28;20183;-61
2023/05/18 04:45:05;;;;;;;6.60;2.30;;;9.90;99.90;;;;;;4171679;28;20060;-61
2023/05/18 04:47:07;;;;;;;6.22;2.00;;;9.80;99.90;;;;;;4171792;28;20365;-60
2023/05/18 04:49:08;;;;;;;8.50;2.30;;;9.80;99.90;;;;;;4171200;28;20496;-61
2023/05/18 04:51:09;;;;;;;4.45;2.30;;;9.80;99.90;;;;;;4169504;28;20087;-60
2023/05/18 04:53:11;;;;;;;7.68;2.33;;;9.80;99.90;;;;;;4173036;28;20459;-60
2023/05/18 04:55:11;;;;;;;7.40;2.35;;;9.80;99.90;;;;;;4172282;28;20029;-60
2023/05/18 04:57:12;;;;;;;6.22;2.13;;;9.70;99.90;;;;;;4173253;28;20039;-60
2023/05/18 04:59:13;;;;;;;5.05;2.33;;;9.70;99.90;;;;;;4172914;28;20582;-60
2023/05/18 05:01:14;;;;;;;5.47;2.60;;;9.60;99.90;;;;;;4171056;28;20087;-60
2023/05/18 05:03:15;;;;;;;5.65;2.90;;;9.60;99.90;;;;;;4169969;28;20164;-60
2023/05/18 05:05:16;;;;;;;9.15;2.90;;;9.50;99.90;;;;;;4172283;28;20064;-60
2023/05/18 05:07:16;;;;;;;9.68;2.88;;;9.40;99.90;;;;;;4167436;28;20029;-60
2023/05/18 05:09:17;;;;;;;6.25;2.80;;;9.30;99.90;;;;;;4161211;28;20033;-60
2023/05/18 05:11:17;;;;;;;11.23;3.10;;;9.30;99.90;;;;;;4168308;28;20037;-60
2023/05/18 05:13:18;;;;;;;7.70;2.78;;;9.20;99.90;;;;;;4170461;28;20053;-60
2023/05/18 05:15:19;;;;;;;7.15;2.47;;;9.20;99.90;;;;;;4170156;28;20071;-60
2023/05/18 05:17:21;;;;;;;11.30;2.70;;;9.30;99.90;;;;;;4173440;28;25060;-60
2023/05/18 05:19:21;;;;;;;6.00;2.80;;;9.30;99.90;;;;;;4171729;28;20094;-60
2023/05/18 05:21:22;;;;;;;7.03;2.60;;;9.30;99.90;;;;;;4173149;28;20033;-60
2023/05/18 05:23:23;;;;;;;8.80;3.20;;;9.40;99.90;;;;;;4167898;28;20048;-60
2023/05/18 05:25:23;;;;;;;10.07;3.28;;;9.40;99.90;;;;;;4168087;28;20048;-60
2023/05/18 05:27:25;;;;;;;5.82;2.60;;;9.30;99.90;;;;;;4171661;28;20094;-60
2023/05/18 05:29:26;;;;;;;8.05;2.95;;;9.40;99.90;;;;;;4172562;28;20086;-60
2023/05/18 05:31:27;;;;;;;7.40;2.55;;;9.30;99.90;;;;;;4167493;28;20086;-60
2023/05/18 05:33:27;;;;;;;6.72;2.75;;;9.30;99.90;;;;;;4171855;28;20041;-60
2023/05/18 05:35:28;;;;;;;11.63;3.47;;;9.40;99.90;;;;;;4166643;28;20916;-60
2023/05/18 05:37:29;;;;;;;10.95;3.85;;;9.20;99.90;;;;;;4170101;28;20033;-61
2023/05/18 05:39:30;;;;;;;13.75;3.47;;;9.10;99.90;;;;;;4170450;28;20086;-60
2023/05/18 05:41:30;;;;;;;12.52;4.15;;;9.20;99.90;;;;;;4171022;28;20087;-64
2023/05/18 05:43:31;;;;;;;8.43;3.40;;;9.10;99.90;;;;;;4168932;28;20116;-61
2023/05/18 05:45:31;;;;;;;6.90;3.15;;;9.10;99.90;;;;;;4167508;28;20052;-61
2023/05/18 05:47:32;;;;;;;8.02;3.15;;;9.20;99.90;;;;;;4172293;28;20391;-60
2023/05/18 05:49:33;;;;;;;6.45;2.97;;;9.20;99.90;;;;;;4169374;28;20033;-63
2023/05/18 05:51:33;;;;;;;12.27;3.47;;;9.20;99.90;;;;;;4169291;28;20408;-61
2023/05/18 05:53:34;;;;;;;10.88;3.35;;;9.20;99.90;;;;;;4168387;28;20113;-63
2023/05/18 05:55:39;;;;;;;9.38;3.45;;;9.20;99.90;;;;;;4170421;28;20032;-64
2023/05/18 05:57:41;;;;;;;8.07;3.75;;;9.30;99.90;;;;;;4171180;28;20044;-63
2023/05/18 05:59:42;;;;;;;6.82;2.95;;;9.40;99.90;;;;;;4168388;28;20074;-63
2023/05/18 06:01:42;;;;;;;12.27;3.60;;;9.50;99.90;;;;;;4171148;28;20131;-63
2023/05/18 06:03:44;;;;;;;15.30;4.25;;;9.70;99.90;;;;;;4169301;28;20136;-64
2023/05/18 06:05:44;;;;;;;9.98;3.53;;;9.80;99.90;;;;;;4170671;28;20080;-63
2023/05/18 06:07:45;;;;;;;13.05;3.67;;;10.10;99.90;;;;;;4170061;28;20049;-63
2023/05/18 06:09:45;;;;;;;9.15;3.50;;;10.50;99.90;;;;;;4172021;28;20115;-63
2023/05/18 06:11:46;;;;;;;11.60;4.00;;;10.80;99.90;;;;;;4170643;28;20033;-63
2023/05/18 06:13:47;;;;;;;7.53;2.78;;;11.10;99.90;;;;;;4171715;28;20119;-63
2023/05/18 06:15:47;;;;;;;6.43;2.72;;;11.50;99.90;;;;;;4171653;28;20025;-63
2023/05/18 06:17:48;;;;;;;7.65;2.92;;;11.90;99.90;;;;;;4175384;28;20065;-63
2023/05/18 06:19:48;;;;;;;8.15;2.72;;;12.40;99.90;;;;;;4175661;28;20040;-64
2023/05/18 06:21:49;;;;;;;15.70;3.67;;;12.80;99.90;;;;;;4171881;28;20037;-64
2023/05/18 06:23:49;;;;;;;6.63;2.53;;;13.20;99.90;;;;;;4173485;28;20156;-64
2023/05/18 06:25:50;;;;;;;7.60;2.90;;;13.60;99.90;;;;;;4174882;28;20041;-64
2023/05/18 06:27:51;;;;;;;9.75;3.10;;;13.90;99.90;;;;;;4176516;28;20045;-64
2023/05/18 06:29:51;;;;;;;15.98;3.65;;;14.10;99.90;;;;;;4174352;28;20086;-64
2023/05/18 06:31:52;;;;;;;7.45;2.83;;;14.30;99.90;;;;;;4167359;28;20053;-64
2023/05/18 06:33:53;;;;;;;12.60;3.53;;;14.40;99.90;;;;;;4176307;28;20060;-64
2023/05/18 06:35:54;;;;;;;9.18;3.15;;;14.70;99.90;;;;;;4180480;28;20117;-64
2023/05/18 06:37:54;;;;;;;9.45;3.40;;;15.10;99.90;;;;;;4176397;28;20048;-64
2023/05/18 06:39:55;;;;;;;10.80;3.72;;;15.30;99.90;;;;;;4169806;28;20048;-65
2023/05/18 06:41:55;;;;;;;10.98;3.30;;;15.50;99.90;;;;;;4176715;28;20039;-65
2023/05/18 06:43:59;;;;;;;10.48;3.72;;;15.50;99.90;;;;;;4176091;28;20036;-65
2023/05/18 06:45:59;;;;;;;9.80;3.20;;;15.50;99.90;;;;;;4174069;28;20091;-65
2023/05/18 06:48:00;;;;;;;6.25;2.58;;;15.40;99.90;;;;;;4175319;28;20076;-65
2023/05/18 06:50:00;;;;;;;9.90;3.15;;;15.70;99.90;;;;;;4178376;28;20082;-65
2023/05/18 06:52:02;;;;;;;8.32;2.88;;;15.70;99.90;;;;;;4176022;28;20040;-65
2023/05/18 06:54:02;;;;;;;8.05;3.50;;;15.90;99.90;;;;;;4178739;28;20037;-65
2023/05/18 06:56:03;;;;;;;9.73;3.03;;;15.50;99.10;;;;;;4176951;28;20033;-65
2023/05/18 06:58:04;;;;;;;6.50;2.97;;;15.40;99.80;;;;;;4175123;28;20052;-66
2023/05/18 07:00:11;;;;;;;4.47;2.20;;;15.30;99.90;;;;;;4177315;28;20029;-66
2023/05/18 07:02:11;;;;;;;6.85;2.95;;;15.40;99.00;;;;;;4177711;28;20544;-65
2023/05/18 07:04:12;;;;;;;8.07;2.83;;;15.50;99.90;;;;;;4175376;28;20044;-66
2023/05/18 07:06:13;;;;;;;7.25;2.53;;;15.70;99.90;;;;;;4176656;28;20041;-65
2023/05/18 07:08:13;;;;;;;5.78;2.28;;;15.90;99.90;;;;;;4174066;28;20045;-65
2023/05/18 07:10:14;;;;;;;9.93;2.85;;;16.00;99.90;;;;;;4172658;28;20036;-65
2023/05/18 07:12:14;;;;;;;7.60;2.50;;;15.80;98.50;;;;;;4174508;28;20097;-65
2023/05/18 07:14:15;;;;;;;7.85;2.80;;;15.90;99.60;;;;;;4173247;28;20038;-65
2023/05/18 07:16:16;;;;;;;7.75;2.83;;;16.00;99.90;;;;;;4172142;28;20575;-65
2023/05/18 07:18:16;;;;;;;11.90;3.30;;;16.00;99.90;;;;;;4178179;28;20053;-65
2023/05/18 07:20:18;;;;;;;6.30;2.67;;;15.50;98.00;;;;;;4174931;28;20025;-66
2023/05/18 07:22:18;;;;;;;7.22;2.78;;;15.70;99.40;;;;;;4177707;28;20071;-65
2023/05/18 07:24:19;;;;;;;11.10;3.05;;;15.80;99.90;;;;;;4175524;28;20029;-65
2023/05/18 07:26:21;;;;;;;7.78;2.55;;;15.40;98.00;;;;;;4173793;28;20718;-65
2023/05/18 07:28:21;;;;;;;10.25;3.50;;;15.50;99.90;;;;;;4173729;28;20033;-65
2023/05/18 07:30:22;;;;;;;9.13;2.80;;;15.70;99.90;;;;;;4173202;28;20570;-65
2023/05/18 07:32:23;;;;;;;12.70;3.28;;;15.70;99.20;;;;;;4174106;28;20098;-65
2023/05/18 07:34:25;;;;;;;8.80;3.10;;;15.60;98.30;;;;;;4177013;28;20408;-65
2023/05/18 07:36:27;;;;;;;7.63;2.63;;;15.50;98.40;;;;;;4167562;28;20095;-65
2023/05/18 07:38:28;;;;;;;8.32;2.40;;;15.50;98.70;;;;;;4169458;28;20116;-65
2023/05/18 07:40:28;;;;;;;10.27;3.03;;;15.50;98.70;;;;;;4172632;28;20078;-65
2023/05/18 07:42:29;;;;;;;7.90;3.10;;;15.60;99.90;;;;;;4172362;28;20112;-65
2023/05/18 07:44:30;;;;;;;9.57;3.60;;;15.50;98.10;;;;;;4169577;28;20037;-65
2023/05/18 07:46:31;;;;;;;7.50;3.30;;;15.40;97.70;;;;;;4179526;28;20123;-65
2023/05/18 07:48:31;;;;;;;7.85;3.40;;;15.50;99.20;;;;;;4176796;28;20104;-65
2023/05/18 07:50:33;;;;;;;10.15;2.65;;;15.50;99.90;;;;;;4173328;28;20039;-65
2023/05/18 07:52:34;;;;;;;8.65;3.50;;;15.80;99.90;;;;;;4173494;28;20033;-65
2023/05/18 07:54:34;;;;;;;5.88;3.03;;;15.90;99.90;;;;;;4175117;28;20078;-65
2023/05/18 07:56:35;;;;;;;8.35;3.47;;;16.20;99.90;;;;;;4172753;28;21829;-69
2023/05/18 07:58:36;;;;;;;10.30;3.08;;;16.20;99.30;;;;;;4172364;28;20052;-65
2023/05/18 08:00:36;;;;;;;7.85;2.65;;;16.40;99.90;;;;;;4170082;28;20425;-65
2023/05/18 08:02:37;;;;;;;7.60;2.55;;;16.60;99.90;;;;;;4170947;28;20128;-65
2023/05/18 08:04:38;;;;;;;7.20;2.58;;;16.80;99.90;;;;;;4174154;28;20037;-65
2023/05/18 08:06:38;;;;;;;8.80;3.30;;;16.90;98.30;;;;;;4172002;28;20472;-65
2023/05/18 08:08:39;;;;;;;8.43;2.55;;;16.90;99.60;;;;;;4170434;28;20423;-65
2023/05/18 08:10:42;;;;;;;9.75;3.10;;;16.90;96.40;;;;;;4170905;28;20138;-65
2023/05/18 08:12:43;;;;;;;10.27;3.13;;;16.60;97.90;;;;;;4174171;28;20032;-65
2023/05/18 08:14:43;;;;;;;10.55;3.35;;;16.20;96.10;;;;;;4175073;28;20912;-65
2023/05/18 08:16:44;;;;;;;12.43;3.10;;;15.70;95.10;;;;;;4169575;28;20029;-65
2023/05/18 08:18:45;;;;;;;6.65;2.47;;;15.50;95.10;;;;;;4168902;28;20045;-65
2023/05/18 08:20:46;;;;;;;5.30;1.95;;;15.80;99.90;;;;;;4171098;28;20124;-65
2023/05/18 08:22:46;;;;;;;7.63;2.83;;;16.00;99.90;;;;;;4172386;28;20484;-65
2023/05/18 08:24:47;;;;;;;5.72;2.13;;;15.90;96.70;;;;;;4173625;28;20052;-65
2023/05/18 08:26:48;;;;;;;6.18;2.42;;;16.10;97.60;;;;;;4173302;28;20055;-65
2023/05/18 08:28:48;;;;;;;5.20;2.28;;;16.20;99.90;;;;;;4172460;28;20028;-65
2023/05/18 08:30:50;;;;;;;7.10;2.13;;;16.30;99.90;;;;;;4170276;28;20124;-65
2023/05/18 08:32:51;;;;;;;7.13;2.58;;;16.50;98.50;;;;;;4170465;28;20059;-65
2023/05/18 08:34:52;;;;;;;10.65;3.13;;;16.50;99.80;;;;;;4173636;28;20484;-65
2023/05/18 08:36:52;;;;;;;9.75;2.45;;;16.30;95.30;;;;;;4168783;28;20029;-65
2023/05/18 08:38:53;;;;;;;5.00;2.40;;;16.10;95.80;;;;;;4171787;28;20033;-65
2023/05/18 08:41:10;;;;;;;7.00;2.50;;;16.30;97.70;;;;;;4165009;28;20373;-65
2023/05/18 08:43:22;;;;;;;7.47;2.67;;;16.40;95.60;;;;;;4168908;28;20123;-65
2023/05/18 08:45:43;;;;;;;7.47;2.78;;;16.20;95.40;;;;;;4167334;28;21066;-65
2023/05/18 08:47:44;;;;;;;9.55;2.72;;;16.10;96.40;;;;;;4158604;28;20179;-65
2023/05/18 08:49:49;;;;;;;7.72;2.38;;;16.50;99.90;;;;;;4165098;28;20072;-66
2023/05/18 08:51:59;;;;;;;10.45;2.80;;;16.50;96.60;;;;;;4167945;28;20375;-65
2023/05/18 08:54:00;;;;;;;9.70;3.10;;;16.40;94.20;;;;;;4169115;28;20029;-65
2023/05/18 08:56:02;;;;;;;6.57;2.53;;;16.50;94.90;;;;;;4162053;28;20039;-64
2023/05/18 08:58:06;;;;;;;6.70;2.70;;;16.50;99.00;;;;;;4168952;28;20175;-64
2023/05/18 09:00:08;;;;;;;7.78;2.72;;;16.30;94.50;;;;;;4166514;28;20048;-65
2023/05/18 09:02:09;;;;;;;;;;;16.20;94.30;;;;;;4170997;28;20053;-65
2023/05/18 09:04:11;;;;;;;8.50;2.20;;;16.10;94.70;;;;;;4171302;28;19909;-65
2023/05/18 09:06:11;;;;;;;10.57;2.50;;;16.30;98.40;;;;;;4171756;28;20930;-64
2023/05/18 09:08:12;;;;;;;5.00;2.45;;;16.40;96.20;;;;;;4169346;28;20044;-64
2023/05/18 09:10:14;;;;;;;6.05;2.15;;;16.40;95.50;;;;;;4166970;28;20099;-65
2023/05/18 09:12:16;;;;;;;4.83;1.90;;;16.50;98.90;;;;;;4172291;28;20063;-64
2023/05/18 09:14:17;;;;;;;10.48;2.30;;;16.80;99.90;;;;;;4170701;28;20051;-64
2023/05/18 09:16:18;;;;;;;6.70;2.05;;;17.00;97.90;;;;;;4166833;28;20040;-64
2023/05/18 09:18:18;;;;;;;7.95;2.33;;;17.20;99.90;;;;;;4172078;28;20424;-64
2023/05/18 09:20:20;;;;;;;4.88;2.38;;;17.30;96.50;;;;;;4174214;28;20036;-65
2023/05/18 09:22:20;;;;;;;7.28;2.05;;;17.30;96.70;;;;;;4170339;28;20404;-64
2023/05/18 09:24:21;;;;;;;6.22;2.20;;;17.50;96.60;;;;;;4172755;28;20036;-64
2023/05/18 09:26:22;;;;;;;9.32;2.70;;;17.60;97.30;;;;;;4171723;28;20493;-65
2023/05/18 09:28:42;;;;;;;6.45;1.98;;;17.30;94.60;;;;;;4171868;28;20051;-64
2023/05/18 09:30:42;;;;;;;8.68;3.25;;;17.40;94.30;;;;;;4167128;28;20472;-64
2023/05/18 09:32:46;;;;;;;9.55;2.75;;;17.20;93.40;;;;;;4176129;28;20082;-65
2023/05/18 09:34:47;;;;;;;5.70;2.17;;;17.10;94.20;;;;;;4172311;28;20029;-65
2023/05/18 09:36:51;;;;;;;6.35;2.15;;;17.30;98.00;;;;;;4179415;28;20067;-64
2023/05/18 09:38:52;;;;;;;7.85;2.20;;;17.50;99.00;;;;;;4168104;28;20022;-65
2023/05/18 09:40:53;;;;;;;10.05;2.45;;;17.70;98.30;;;;;;4171191;28;20167;-64
2023/05/18 09:42:54;;;;;;;6.00;2.28;;;17.80;96.60;;;;;;4171865;28;20158;-64
2023/05/18 09:44:55;;;;;;;7.47;2.30;;;18.00;98.10;;;;;;4170039;28;20049;-65
2023/05/18 09:46:56;;;;;;;7.93;2.50;;;17.80;92.50;;;;;;4169460;28;20404;-64
2023/05/18 09:48:56;;;;;;;8.30;2.13;;;17.60;92.00;;;;;;4174053;28;20044;-64
2023/05/18 09:50:59;;;;;;;5.22;2.08;;;17.50;95.00;;;;;;4172915;28;20043;-65
2023/05/18 09:53:00;;;;;;;7.80;2.60;;;17.60;95.40;;;;;;4174585;28;20039;-65
2023/05/18 09:55:03;;;;;;;6.40;2.05;;;17.50;92.30;;;;;;4171041;28;20133;-64
2023/05/18 09:57:04;;;;;;;9.32;2.92;;;17.60;94.70;;;;;;4167795;28;20029;-67
2023/05/18 09:59:15;;;;;;;7.35;2.35;;;17.40;93.80;;;;;;4172235;28;20033;-66
2023/05/18 10:01:15;;;;;;;6.63;2.22;;;17.30;92.60;;;;;;4172056;28;20399;-65
2023/05/18 10:03:18;;;;;;;5.38;2.08;;;17.50;97.70;;;;;;4176981;28;20123;-65
2023/05/18 10:05:19;;;;;;;;;;;17.70;97.80;;;;;;4177706;28;20028;-65
2023/05/18 10:07:21;;;;;;;5.85;2.15;;;17.80;97.70;;;;;;4175390;28;19927;-64
2023/05/18 10:09:22;;;;;;;7.45;2.20;;;17.80;96.30;;;;;;4172808;28;20037;-64
2023/05/18 10:11:23;;;;;;;7.10;2.58;;;18.00;99.30;;;;;;4174459;28;20500;-66
2023/05/18 10:13:26;;;;;;;8.68;2.60;;;18.00;94.40;;;;;;4173578;28;20084;-64
2023/05/18 10:15:27;;;;;;;7.53;2.55;;;17.90;95.80;;;;;;4168295;28;20076;-65
2023/05/18 10:17:31;;;;;;;7.20;2.65;;;18.00;93.60;;;;;;4176906;28;20036;-65
2023/05/18 10:19:34;;;;;;;5.47;2.45;;;17.80;95.60;;;;;;4175468;28;20040;-65
2023/05/18 10:21:36;;;;;;;5.88;2.13;;;17.80;94.40;;;;;;4176125;28;20150;-65
2023/05/18 10:23:39;;;;;;;6.65;2.38;;;17.90;95.20;;;;;;4178416;28;20477;-66
2023/05/18 10:25:43;;;;;;;5.80;2.38;;;18.00;95.30;;;;;;4171052;28;20048;-65
2023/05/18 10:27:46;;;;;;;6.07;2.45;;;18.20;98.10;;;;;;4171810;28;20040;-65
2023/05/18 10:29:51;;;;;;;7.57;2.42;;;18.30;97.00;;;;;;4175645;28;20091;-65
2023/05/18 10:31:54;;;;;;;7.78;2.60;;;18.40;96.50;;;;;;4173309;28;20032;-65
2023/05/18 10:33:55;;;;;;;5.72;2.13;;;18.50;97.90;;;;;;4176618;28;20044;-65
2023/05/18 10:35:56;;;;;;;8.32;2.30;;;18.60;94.70;;;;;;4175363;28;20808;-65
2023/05/18 10:37:58;;;;;;;8.80;2.50;;;18.60;95.80;;;;;;4178196;28;20029;-65